Airfield :
LOGIN :

Register | Disclaimer

   EN    FR    IT 

 










Legend :    VFR   Marginal VFR   IFR   Intensive IFR   Very Intensive IFR
Visi :
Ceiling :
>= 8 km
>= 3000ft
5 to 8 km
1000 to 3000 ft
1500m to 5 km
500 to 1000 ft
800 to 1500m
200 to 500 ft
< 800m
< 200 ft
Symbols :   Thunderstorms  Fog  Heavy snow  Heavy precipitations  Wind > 20 kt
SIGMETs :     Misc.  Thunderstorms  Icing  Turbulence  Mountain Waves  Volcanic Ashes







- Airport Elevation : 665 ft
- IATA code : NOC


EIKN - Connaught / Knock- Ireland West

CURRENT METAR :
  • 181500Z 29011KT 5000 -RADZ BKN006 OVC010 08/08 Q1020 NOSIG

EXPIRED METARs :
  • 181430Z 29015KT 9000 -RADZ BKN005 OVC010 08/08 Q1020 NOSIG
  • 181400Z 29013G23KT 9999 -RADZ SCT004 BKN008 OVC014 08/08 Q1020 NOSIG
  • 181330Z 29012KT 260V320 5000 -RADZ BKN003 OVC009 08/08 Q1020 NOSIG
  • 181300Z 29014KT 9999 -RA BKN010 BKN018 OVC026 08/08 Q1019 NOSIG
  • 181230Z 29016KT 9999 -RA BKN010 BKN015 OVC026 08/08 Q1019 NOSIG

TAF TAF EIKN
Valid from the 18 at 12:00 until the 19 at 12:00 UTC


181100Z 1812/1912 27011KT 5000 -RA SCT005 BKN010 OVC020
TEMPO 1812/1818 4000 -RADZ BKN004
BECMG 1902/1904 19007KT 4000 -RADZ BKN006
TEMPO 1903/1910 3000 BKN003
BECMG 1911/1912 9999 BKN020
No reported NOTAMs for that airfield.



MET'MAP, your aeronautical weather chart ! - Copyright ORBIFLY December 2007 - Disclaimer

ORBIFLY MET'MAP TEAM :

Programming & Development : Alexandra Zaïnal
Concept & Development : Baudouin d'Aumeries
Co-Development & Prog : Marc-Olivier Méhu
Technical & hardware support : Manuel Goepfert

Contact : metmap@orbifly.com




SOURCES & CREDITS :

   NOAA